Time;durP1;ratioP1;P1;durP2;ratioP2;P2;SDS_P1;SDS_P2;PMS_P1;PMS_P2;Temp;Humidity;BMP_temperature;BMP_pressure;BME280_temperature;BME280_humidity;BME280_pressure;Samples;Min_cycle;Max_cycle;Signal;HPM_P1;HPM_P2
2024/01/22 00:02:15;;;;;;;14.00;6.60;;;;;;;;;;103717;1289;545506;-72
2024/01/22 00:05:49;;;;;;;13.80;7.10;;;;;;;;;;103937;1288;544970;-71
2024/01/22 00:09:31;;;;;;;15.10;7.70;;;;;;;;;;103700;1292;545659;-72
2024/01/22 00:13:08;;;;;;;16.10;8.00;;;;;;;;;;103748;1289;544907;-71
2024/01/22 00:16:45;;;;;;;14.00;7.40;;;;;;;;;;103573;1295;544828;-72
2024/01/22 00:20:22;;;;;;;13.30;7.00;;;;;;;;;;103802;1289;546742;-71
2024/01/22 00:24:00;;;;;;;13.20;6.20;;;;;;;;;;103569;1291;545199;-73
2024/01/22 00:27:38;;;;;;;13.50;6.90;;;;;;;;;;103703;1292;545232;-71
2024/01/22 00:31:14;;;;;;;11.40;6.30;;;;;;;;;;103661;1291;544999;-71
2024/01/22 00:34:53;;;;;;;11.00;6.30;;;;;;;;;;103787;1289;546116;-71
2024/01/22 00:38:30;;;;;;;11.50;6.20;;;;;;;;;;105761;1289;544934;-70
2024/01/22 00:42:07;;;;;;;12.10;6.20;;;;;;;;;;105495;1286;544986;-71
2024/01/22 00:45:45;;;;;;;11.90;5.80;;;;;;;;;;103603;1293;544765;-72
2024/01/22 00:49:24;;;;;;;11.10;5.70;;;;;;;;;;103675;1289;544941;-72
2024/01/22 00:52:59;;;;;;;12.10;6.30;;;;;;;;;;103982;1286;544963;-71
2024/01/22 00:56:38;;;;;;;11.50;5.80;;;;;;;;;;103783;1292;545546;-71
2024/01/22 01:00:17;;;;;;;11.50;6.40;;;;;;;;;;103736;1289;545575;-71
2024/01/22 01:03:55;;;;;;;13.00;6.30;;;;;;;;;;103779;1294;544702;-73
2024/01/22 01:07:26;;;;;;;10.80;6.00;;;;;;;;;;103923;1289;544934;-72
2024/01/22 01:11:07;;;;;;;10.40;5.50;;;;;;;;;;103835;1289;544845;-71
2024/01/22 01:14:44;;;;;;;11.50;6.00;;;;;;;;;;103735;1292;545180;-72
2024/01/22 01:18:22;;;;;;;10.70;5.80;;;;;;;;;;103822;1292;545695;-71
2024/01/22 01:22:05;;;;;;;11.20;5.80;;;;;;;;;;103447;1292;547818;-72
2024/01/22 01:25:37;;;;;;;11.00;5.90;;;;;;;;;;103790;1292;544776;-71
2024/01/22 01:29:14;;;;;;;11.50;6.20;;;;;;;;;;103696;1289;544887;-71
2024/01/22 01:32:53;;;;;;;11.80;6.00;;;;;;;;;;103705;1290;544723;-71
2024/01/22 01:36:30;;;;;;;13.70;6.30;;;;;;;;;;103626;1294;545449;-71
2024/01/22 01:40:08;;;;;;;15.00;6.20;;;;;;;;;;103805;1289;545874;-72
2024/01/22 01:43:44;;;;;;;11.20;6.00;;;;;;;;;;103587;1292;544971;-72
2024/01/22 01:47:22;;;;;;;11.40;5.90;;;;;;;;;;103887;1289;544954;-71
2024/01/22 01:51:00;;;;;;;11.70;6.30;;;;;;;;;;103574;1291;545852;-71
2024/01/22 01:54:33;;;;;;;9.90;5.50;;;;;;;;;;103814;1292;544911;-71
2024/01/22 01:58:14;;;;;;;10.00;5.80;;;;;;;;;;103626;1292;544918;-71
2024/01/22 02:01:52;;;;;;;11.40;6.40;;;;;;;;;;103793;1289;545570;-72
2024/01/22 02:05:29;;;;;;;10.20;5.60;;;;;;;;;;103586;1291;545155;-71
2024/01/22 02:09:07;;;;;;;10.20;5.30;;;;;;;;;;103790;1289;544936;-72
2024/01/22 02:12:44;;;;;;;11.00;5.80;;;;;;;;;;103637;1292;544738;-71
2024/01/22 02:16:18;;;;;;;11.10;5.70;;;;;;;;;;103836;1290;545320;-71
2024/01/22 02:19:59;;;;;;;10.40;5.30;;;;;;;;;;103660;1289;544921;-72
2024/01/22 02:23:37;;;;;;;10.90;5.50;;;;;;;;;;103642;1292;544977;-71
2024/01/22 02:27:14;;;;;;;9.70;5.30;;;;;;;;;;103679;1292;545234;-72
2024/01/22 02:30:48;;;;;;;10.00;5.30;;;;;;;;;;103590;1291;545469;-70
2024/01/22 02:34:25;;;;;;;12.10;5.90;;;;;;;;;;103805;1292;545489;-71
2024/01/22 02:38:07;;;;;;;10.00;5.00;;;;;;;;;;103921;1292;545075;-71
2024/01/22 02:41:44;;;;;;;9.80;5.40;;;;;;;;;;103835;1289;545690;-71
2024/01/22 02:45:24;;;;;;;10.90;5.40;;;;;;;;;;103619;1292;547812;-71
2024/01/22 02:48:59;;;;;;;10.20;5.70;;;;;;;;;;103751;1293;544631;-72
2024/01/22 02:52:37;;;;;;;10.80;5.90;;;;;;;;;;103931;1289;544849;-72
2024/01/22 02:56:18;;;;;;;11.40;5.70;;;;;;;;;;103926;1290;545543;-71
2024/01/22 02:59:51;;;;;;;10.60;6.10;;;;;;;;;;103591;1290;544907;-70
2024/01/22 03:03:28;;;;;;;10.60;6.10;;;;;;;;;;103733;1291;545485;-71
2024/01/22 03:07:08;;;;;;;11.30;6.30;;;;;;;;;;103782;1288;544791;-71
2024/01/22 03:10:44;;;;;;;11.10;5.60;;;;;;;;;;103637;1291;545553;-72
2024/01/22 03:14:21;;;;;;;10.60;5.60;;;;;;;;;;103728;1292;544700;-72
2024/01/22 03:17:54;;;;;;;10.00;5.20;;;;;;;;;;103785;1290;544897;-71
2024/01/22 03:21:36;;;;;;;8.90;4.60;;;;;;;;;;103820;1289;545330;-71
2024/01/22 03:25:16;;;;;;;10.60;5.40;;;;;;;;;;103719;1291;545459;-70
2024/01/22 03:28:51;;;;;;;9.50;5.00;;;;;;;;;;103771;1289;545031;-72
2024/01/22 03:32:28;;;;;;;10.50;5.50;;;;;;;;;;103791;1289;545673;-72
2024/01/22 03:36:06;;;;;;;11.80;6.20;;;;;;;;;;103696;1289;545023;-72
2024/01/22 03:39:43;;;;;;;10.20;5.30;;;;;;;;;;103630;1297;545090;-71
2024/01/22 03:43:20;;;;;;;9.10;4.60;;;;;;;;;;104537;1285;545872;-71
2024/01/22 03:46:58;;;;;;;9.90;4.90;;;;;;;;;;103764;1292;544961;-72
2024/01/22 03:50:36;;;;;;;10.10;4.80;;;;;;;;;;103737;1292;545875;-71
2024/01/22 03:54:13;;;;;;;9.80;4.60;;;;;;;;;;103771;1301;545400;-71
2024/01/22 03:57:50;;;;;;;10.70;5.30;;;;;;;;;;103741;1288;545052;-72
2024/01/22 04:01:24;;;;;;;9.80;4.60;;;;;;;;;;103817;1292;545822;-71
2024/01/22 04:05:06;;;;;;;9.80;4.70;;;;;;;;;;103777;1289;545036;-72
2024/01/22 04:08:43;;;;;;;11.60;5.20;;;;;;;;;;103731;1291;545718;-71
2024/01/22 04:12:20;;;;;;;9.90;5.20;;;;;;;;;;103719;1289;544948;-72
2024/01/22 04:15:57;;;;;;;8.80;4.80;;;;;;;;;;103717;1295;545971;-70
2024/01/22 04:19:35;;;;;;;9.00;4.80;;;;;;;;;;103792;1289;545006;-71
2024/01/22 04:23:13;;;;;;;10.00;4.90;;;;;;;;;;103666;1294;544945;-72
2024/01/22 04:26:50;;;;;;;9.90;5.20;;;;;;;;;;103710;1289;545058;-71
2024/01/22 04:30:27;;;;;;;9.20;4.80;;;;;;;;;;103588;1291;544814;-71
2024/01/22 04:34:05;;;;;;;11.10;5.40;;;;;;;;;;103760;1305;544852;-71
2024/01/22 04:37:42;;;;;;;10.40;5.60;;;;;;;;;;103837;1289;545241;-71
2024/01/22 04:41:20;;;;;;;8.90;4.60;;;;;;;;;;103923;1289;545897;-71
2024/01/22 04:44:57;;;;;;;10.70;5.30;;;;;;;;;;104006;1290;544722;-70
2024/01/22 04:48:34;;;;;;;8.20;4.30;;;;;;;;;;103816;1288;545029;-71
2024/01/22 04:52:12;;;;;;;9.80;4.70;;;;;;;;;;103621;1292;545061;-72
2024/01/22 04:55:50;;;;;;;9.80;4.60;;;;;;;;;;103829;1296;544796;-72
2024/01/22 04:59:27;;;;;;;10.10;4.60;;;;;;;;;;103551;1292;545709;-72
2024/01/22 05:03:05;;;;;;;10.90;4.50;;;;;;;;;;103776;1289;544954;-72
2024/01/22 05:06:41;;;;;;;10.60;5.10;;;;;;;;;;104142;1291;545785;-71
2024/01/22 05:10:16;;;;;;;12.00;5.20;;;;;;;;;;103737;1291;544852;-71
2024/01/22 05:13:57;;;;;;;11.40;5.20;;;;;;;;;;104383;1286;545433;-72
2024/01/22 05:17:35;;;;;;;11.20;5.10;;;;;;;;;;103749;1289;545194;-71
2024/01/22 05:21:12;;;;;;;11.50;5.30;;;;;;;;;;103729;1292;545640;-71
2024/01/22 05:24:49;;;;;;;10.30;5.20;;;;;;;;;;103510;1289;545873;-71
2024/01/22 05:28:27;;;;;;;12.30;5.40;;;;;;;;;;103454;1290;545322;-70
2024/01/22 05:32:04;;;;;;;10.90;5.40;;;;;;;;;;103791;1289;545331;-69
2024/01/22 05:35:42;;;;;;;11.30;5.50;;;;;;;;;;103565;1295;545022;-71
2024/01/22 05:39:19;;;;;;;10.90;4.80;;;;;;;;;;103783;1289;544727;-72
2024/01/22 05:42:57;;;;;;;9.30;4.30;;;;;;;;;;103639;1291;544811;-73
2024/01/22 05:46:33;;;;;;;10.40;4.70;;;;;;;;;;103643;1292;544799;-71
2024/01/22 05:50:08;;;;;;;11.20;4.80;;;;;;;;;;103410;1291;544931;-71
2024/01/22 05:53:49;;;;;;;10.20;4.70;;;;;;;;;;103453;1292;545648;-72
2024/01/22 05:57:27;;;;;;;9.10;4.40;;;;;;;;;;103774;1289;544903;-71
2024/01/22 06:01:04;;;;;;;10.30;4.70;;;;;;;;;;103683;1291;545262;-70
2024/01/22 06:04:41;;;;;;;9.20;4.60;;;;;;;;;;103700;1294;545703;-72
2024/01/22 06:08:24;;;;;;;9.50;4.30;;;;;;;;;;103601;1289;547940;-72
2024/01/22 06:12:02;;;;;;;11.40;5.30;;;;;;;;;;103523;1293;547989;-69
2024/01/22 06:15:34;;;;;;;10.90;5.90;;;;;;;;;;103760;1302;544773;-71
2024/01/22 06:19:11;;;;;;;9.30;4.30;;;;;;;;;;103761;1289;544737;-71
2024/01/22 06:22:49;;;;;;;9.20;4.20;;;;;;;;;;103722;1291;545009;-72
2024/01/22 06:26:26;;;;;;;11.90;4.90;;;;;;;;;;103789;1290;545457;-72
2024/01/22 06:30:04;;;;;;;8.70;4.80;;;;;;;;;;103741;1289;545072;-70
2024/01/22 06:33:37;;;;;;;11.30;4.30;;;;;;;;;;103355;1291;545126;-72
2024/01/22 06:37:18;;;;;;;10.80;4.70;;;;;;;;;;103837;1289;544758;-70
2024/01/22 06:40:56;;;;;;;10.40;4.20;;;;;;;;;;103507;1292;545095;-71
2024/01/22 06:44:33;;;;;;;11.90;4.50;;;;;;;;;;103765;1292;545506;-71
2024/01/22 06:48:11;;;;;;;10.80;4.70;;;;;;;;;;103635;1292;545923;-71
2024/01/22 06:51:54;;;;;;;11.30;4.80;;;;;;;;;;103525;1291;547956;-71
2024/01/22 06:55:26;;;;;;;10.90;5.70;;;;;;;;;;103689;1294;545664;-71
2024/01/22 06:59:03;;;;;;;12.80;6.20;;;;;;;;;;103780;1292;544759;-71
2024/01/22 07:02:48;;;;;;;12.40;5.70;;;;;;;;;;103568;1291;547811;-70
2024/01/22 07:06:18;;;;;;;17.80;8.30;;;;;;;;;;103758;1293;545069;-71
2024/01/22 07:09:56;;;;;;;14.60;6.60;;;;;;;;;;103770;1289;545685;-73
2024/01/22 07:13:33;;;;;;;13.10;6.10;;;;;;;;;;103661;1291;545587;-73
2024/01/22 07:17:11;;;;;;;10.80;4.70;;;;;;;;;;103699;1289;545371;-71
2024/01/22 07:20:48;;;;;;;10.20;4.70;;;;;;;;;;103771;1289;546484;-73
2024/01/22 07:24:26;;;;;;;10.30;4.60;;;;;;;;;;103601;1291;545599;-71
2024/01/22 07:27:59;;;;;;;11.40;4.60;;;;;;;;;;104054;1285;544786;-71
2024/01/22 07:31:41;;;;;;;11.90;5.30;;;;;;;;;;103672;1291;545467;-73
2024/01/22 07:35:18;;;;;;;9.90;4.70;;;;;;;;;;103603;1291;545868;-71
2024/01/22 07:38:57;;;;;;;10.80;4.70;;;;;;;;;;103968;1286;544796;-72
2024/01/22 07:42:34;;;;;;;11.80;5.10;;;;;;;;;;103754;1292;545356;-71
2024/01/22 07:46:10;;;;;;;11.40;5.10;;;;;;;;;;103606;1295;544879;-71
2024/01/22 07:49:47;;;;;;;10.50;5.30;;;;;;;;;;103649;1290;544782;-72
2024/01/22 07:53:26;;;;;;;10.00;5.70;;;;;;;;;;103656;1292;545712;-71
2024/01/22 07:56:59;;;;;;;10.90;5.90;;;;;;;;;;103936;1292;544772;-72
2024/01/22 08:00:40;;;;;;;11.40;5.60;;;;;;;;;;103675;1289;545018;-72
2024/01/22 08:04:18;;;;;;;10.80;5.00;;;;;;;;;;103633;1291;545509;-72
2024/01/22 08:07:55;;;;;;;11.70;5.60;;;;;;;;;;103617;1295;544769;-73
2024/01/22 08:11:32;;;;;;;10.90;5.20;;;;;;;;;;103640;1289;545432;-72
2024/01/22 08:15:14;;;;;;;10.60;4.80;;;;;;;;;;103664;1291;545174;-72
2024/01/22 08:18:53;;;;;;;10.10;4.60;;;;;;;;;;103374;1294;547852;-72
2024/01/22 08:22:25;;;;;;;10.80;4.80;;;;;;;;;;103618;1291;544988;-70
2024/01/22 08:26:02;;;;;;;10.90;5.10;;;;;;;;;;103715;1305;545343;-71
2024/01/22 08:29:39;;;;;;;12.40;5.30;;;;;;;;;;103742;1289;546721;-71
2024/01/22 08:33:17;;;;;;;14.10;5.20;;;;;;;;;;103661;1289;544945;-72
2024/01/22 08:36:55;;;;;;;11.70;4.40;;;;;;;;;;103616;1295;544968;-70
2024/01/22 08:40:29;;;;;;;10.30;4.50;;;;;;;;;;103745;1291;544799;-71
2024/01/22 08:44:09;;;;;;;10.10;4.10;;;;;;;;;;103681;1292;544901;-72
2024/01/22 08:47:50;;;;;;;10.00;4.40;;;;;;;;;;103803;1289;545349;-71
2024/01/22 08:51:25;;;;;;;15.90;4.30;;;;;;;;;;103572;1291;545864;-72
2024/01/22 08:55:05;;;;;;;11.50;3.90;;;;;;;;;;103669;1289;544964;-73
2024/01/22 08:58:40;;;;;;;8.70;4.20;;;;;;;;;;104021;1292;545023;-70
2024/01/22 09:02:17;;;;;;;8.90;4.20;;;;;;;;;;103720;1289;545661;-71
2024/01/22 09:05:55;;;;;;;9.40;4.70;;;;;;;;;;103520;1292;545384;-70
2024/01/22 09:09:33;;;;;;;10.60;4.90;;;;;;;;;;103937;1289;544963;-69
2024/01/22 09:13:09;;;;;;;9.90;4.80;;;;;;;;;;103551;1291;545742;-71
2024/01/22 09:16:46;;;;;;;9.10;4.40;;;;;;;;;;103664;1292;545588;-70
2024/01/22 09:20:24;;;;;;;8.70;4.70;;;;;;;;;;103645;1289;544799;-71
2024/01/22 09:24:02;;;;;;;12.20;5.90;;;;;;;;;;103712;1289;545147;-71
2024/01/22 09:27:39;;;;;;;13.80;7.20;;;;;;;;;;103545;1295;544946;-70
2024/01/22 09:31:17;;;;;;;13.90;6.40;;;;;;;;;;103694;1295;545753;-69
2024/01/22 09:34:54;;;;;;;11.20;5.80;;;;;;;;;;104286;1282;544907;-70
2024/01/22 09:38:32;;;;;;;11.70;6.10;;;;;;;;;;103798;1289;545584;-71
2024/01/22 09:42:11;;;;;;;11.70;6.40;;;;;;;;;;103649;1291;545167;-71
2024/01/22 09:45:47;;;;;;;11.80;6.50;;;;;;;;;;103711;1289;545932;-71
2024/01/22 09:49:24;;;;;;;13.70;6.70;;;;;;;;;;103696;1289;545039;-70
2024/01/22 09:53:08;;;;;;;12.90;6.80;;;;;;;;;;103770;1289;544945;-71
2024/01/22 09:56:39;;;;;;;13.30;7.50;;;;;;;;;;103725;1293;545796;-71
2024/01/22 10:00:26;;;;;;;11.80;7.00;;;;;;;;;;104203;1282;548464;-71
2024/01/22 10:03:55;;;;;;;12.60;7.30;;;;;;;;;;103669;1291;545122;-72
2024/01/22 10:07:27;;;;;;;12.90;7.20;;;;;;;;;;103868;1298;544952;-69
2024/01/22 10:11:09;;;;;;;13.50;6.90;;;;;;;;;;103827;1290;545027;-70
2024/01/22 10:14:46;;;;;;;12.40;7.80;;;;;;;;;;103722;1290;544968;-70
2024/01/22 10:18:24;;;;;;;13.90;8.50;;;;;;;;;;103639;1289;544984;-69
2024/01/22 10:22:01;;;;;;;16.50;9.90;;;;;;;;;;103692;1289;544900;-72
2024/01/22 10:25:39;;;;;;;13.80;8.30;;;;;;;;;;103529;1292;545059;-71
2024/01/22 10:29:22;;;;;;;12.90;7.80;;;;;;;;;;103572;1289;545165;-70
2024/01/22 10:33:07;;;;;;;12.70;7.50;;;;;;;;;;103651;1290;544974;-70
2024/01/22 10:36:31;;;;;;;13.40;8.30;;;;;;;;;;103515;1294;544833;-69
2024/01/22 10:40:11;;;;;;;14.50;8.90;;;;;;;;;;103750;1290;544994;-72
2024/01/22 10:43:46;;;;;;;13.60;7.70;;;;;;;;;;103678;1291;545012;-69
2024/01/22 10:47:23;;;;;;;15.60;8.60;;;;;;;;;;103547;1293;545514;-70
2024/01/22 10:51:01;;;;;;;14.20;8.00;;;;;;;;;;103580;1289;545050;-71
2024/01/22 10:54:38;;;;;;;13.30;8.30;;;;;;;;;;103893;1291;545984;-69
2024/01/22 10:58:22;;;;;;;13.10;7.80;;;;;;;;;;103752;1290;544702;-70
2024/01/22 11:01:54;;;;;;;12.40;7.40;;;;;;;;;;103632;1291;545381;-70
2024/01/22 11:05:33;;;;;;;14.00;7.90;;;;;;;;;;103626;1292;545213;-70
2024/01/22 11:09:09;;;;;;;12.40;6.90;;;;;;;;;;103364;1291;544790;-72
2024/01/22 11:12:48;;;;;;;11.80;7.10;;;;;;;;;;103967;1286;545088;-70
2024/01/22 11:16:19;;;;;;;12.60;7.80;;;;;;;;;;103833;1289;545495;-70
2024/01/22 11:20:17;;;;;;;14.70;8.10;;;;;;;;;;103667;1289;544854;-71
2024/01/22 11:23:38;;;;;;;16.00;8.80;;;;;;;;;;103655;1289;545083;-71
2024/01/22 11:27:15;;;;;;;15.40;8.90;;;;;;;;;;103829;1292;545346;-72
2024/01/22 11:30:53;;;;;;;14.50;8.50;;;;;;;;;;103902;1289;545730;-69
2024/01/22 11:34:39;;;;;;;16.10;8.90;;;;;;;;;;104022;1286;545877;-70
2024/01/22 11:38:11;;;;;;;16.10;8.00;;;;;;;;;;103542;1295;545367;-71
2024/01/22 11:41:45;;;;;;;19.10;9.60;;;;;;;;;;103930;1288;545608;-71
2024/01/22 11:45:23;;;;;;;17.20;8.60;;;;;;;;;;103398;1291;545192;-69
2024/01/22 11:49:07;;;;;;;17.70;9.70;;;;;;;;;;103596;1289;545248;-70
2024/01/22 11:52:38;;;;;;;14.90;8.40;;;;;;;;;;103643;1291;545268;-69
2024/01/22 11:56:21;;;;;;;15.10;8.50;;;;;;;;;;103525;1295;548020;-69
2024/01/22 12:00:05;;;;;;;15.60;8.40;;;;;;;;;;103618;1290;544936;-71
2024/01/22 12:03:30;;;;;;;14.10;7.90;;;;;;;;;;103862;1289;544761;-70
2024/01/22 12:07:07;;;;;;;15.40;8.50;;;;;;;;;;103576;1292;545640;-71
2024/01/22 12:10:45;;;;;;;17.60;10.30;;;;;;;;;;103555;1291;545234;-69
2024/01/22 12:14:25;;;;;;;19.00;10.70;;;;;;;;;;103524;1289;545544;-73
2024/01/22 12:17:56;;;;;;;19.20;10.90;;;;;;;;;;103598;1292;544969;-69
2024/01/22 12:21:57;;;;;;;17.10;10.40;;;;;;;;;;103679;1292;548027;-71
2024/01/22 12:25:14;;;;;;;20.70;11.60;;;;;;;;;;103563;1290;545068;-70
2024/01/22 12:28:56;;;;;;;18.70;11.70;;;;;;;;;;103629;1293;544980;-72
2024/01/22 12:32:30;;;;;;;17.80;11.50;;;;;;;;;;103702;1296;545871;-69
2024/01/22 12:36:06;;;;;;;17.80;11.00;;;;;;;;;;103750;1295;544867;-72
2024/01/22 12:39:44;;;;;;;17.80;10.80;;;;;;;;;;103703;1289;545642;-70
2024/01/22 12:43:22;;;;;;;18.30;11.30;;;;;;;;;;103582;1292;545230;-70
2024/01/22 12:46:59;;;;;;;16.20;10.90;;;;;;;;;;103943;1293;544958;-72
2024/01/22 12:50:36;;;;;;;17.70;11.00;;;;;;;;;;103667;1289;544778;-70
2024/01/22 12:54:14;;;;;;;16.50;10.30;;;;;;;;;;103799;1289;544951;-68
2024/01/22 12:57:52;;;;;;;15.60;9.50;;;;;;;;;;103436;1295;544878;-71
2024/01/22 13:01:26;;;;;;;15.70;9.60;;;;;;;;;;103757;1289;545461;-73
2024/01/22 13:05:07;;;;;;;21.10;12.20;;;;;;;;;;103740;1289;545117;-71
2024/01/22 13:08:44;;;;;;;18.60;11.50;;;;;;;;;;103665;1294;544823;-71
2024/01/22 13:12:24;;;;;;;19.60;12.70;;;;;;;;;;103537;1290;546014;-71
2024/01/22 13:16:00;;;;;;;25.70;14.20;;;;;;;;;;104054;1286;545042;-70
2024/01/22 13:19:42;;;;;;;20.80;12.50;;;;;;;;;;103479;1295;548416;-71
2024/01/22 13:23:16;;;;;;;18.00;10.20;;;;;;;;;;103577;1290;544969;-71
2024/01/22 13:26:58;;;;;;;18.10;11.00;;;;;;;;;;103648;1291;548407;-70
2024/01/22 13:30:31;;;;;;;16.40;9.40;;;;;;;;;;103349;1291;545585;-70
2024/01/22 13:34:07;;;;;;;14.50;9.00;;;;;;;;;;103746;1289;544827;-71
2024/01/22 13:37:50;;;;;;;16.50;9.30;;;;;;;;;;103290;1295;548042;-71
2024/01/22 13:41:22;;;;;;;15.00;7.80;;;;;;;;;;103736;1292;545119;-71
2024/01/22 13:44:59;;;;;;;13.60;8.30;;;;;;;;;;103792;1291;544849;-70
2024/01/22 13:48:36;;;;;;;13.60;7.70;;;;;;;;;;103758;1301;545085;-72
2024/01/22 13:52:14;;;;;;;17.40;9.40;;;;;;;;;;103862;1289;545064;-70
2024/01/22 13:55:51;;;;;;;15.30;8.50;;;;;;;;;;103465;1292;545182;-70
2024/01/22 13:59:28;;;;;;;14.90;8.70;;;;;;;;;;103515;1292;545527;-71
2024/01/22 14:03:06;;;;;;;13.00;7.80;;;;;;;;;;103695;1290;544790;-70
2024/01/22 14:06:44;;;;;;;12.00;6.50;;;;;;;;;;103479;1292;544906;-70
2024/01/22 14:10:20;;;;;;;13.20;7.00;;;;;;;;;;103731;1290;545207;-72
2024/01/22 14:14:00;;;;;;;13.90;7.40;;;;;;;;;;103860;1290;545347;-71
2024/01/22 14:17:36;;;;;;;14.10;8.40;;;;;;;;;;103454;1294;546110;-72
2024/01/22 14:21:12;;;;;;;14.00;7.40;;;;;;;;;;103548;1294;545270;-72
2024/01/22 14:24:52;;;;;;;16.20;8.90;;;;;;;;;;103496;1291;544890;-70
2024/01/22 14:28:34;;;;;;;15.00;8.20;;;;;;;;;;104267;1289;547843;-71
2024/01/22 14:32:07;;;;;;;18.60;10.70;;;;;;;;;;103864;1292;544752;-72
2024/01/22 14:35:44;;;;;;;15.20;8.10;;;;;;;;;;103645;1290;545178;-71
2024/01/22 14:39:21;;;;;;;16.30;9.60;;;;;;;;;;103583;1291;545063;-71
2024/01/22 14:43:01;;;;;;;15.70;8.80;;;;;;;;;;103610;1292;544704;-72
2024/01/22 14:46:38;;;;;;;15.20;8.70;;;;;;;;;;104002;1289;545067;-69
2024/01/22 14:50:15;;;;;;;17.40;9.60;;;;;;;;;;103667;1289;545277;-73
2024/01/22 14:53:51;;;;;;;21.80;12.40;;;;;;;;;;103537;1291;545459;-71
2024/01/22 14:57:28;;;;;;;19.10;9.50;;;;;;;;;;103681;1292;544791;-71
2024/01/22 15:01:06;;;;;;;19.00;10.90;;;;;;;;;;104284;1286;544873;-71
2024/01/22 15:04:43;;;;;;;15.70;8.20;;;;;;;;;;104106;1286;546889;-73
2024/01/22 15:08:20;;;;;;;14.60;8.40;;;;;;;;;;103612;1295;546382;-71
2024/01/22 15:11:59;;;;;;;16.10;9.00;;;;;;;;;;103673;1289;545854;-70
2024/01/22 15:16:10;;;;;;;16.60;9.20;;;;;;;;;;104617;1285;547964;-71
2024/01/22 15:19:13;;;;;;;16.80;9.10;;;;;;;;;;103814;1292;544863;-71
2024/01/22 15:22:46;;;;;;;15.50;8.60;;;;;;;;;;103859;1291;545764;-69
2024/01/22 15:26:29;;;;;;;15.60;8.90;;;;;;;;;;103466;1289;545551;-69
2024/01/22 15:30:11;;;;;;;18.30;10.00;;;;;;;;;;103662;1292;548367;-71
2024/01/22 15:33:42;;;;;;;18.60;10.50;;;;;;;;;;104106;1289;544942;-70
2024/01/22 15:37:20;;;;;;;18.80;11.60;;;;;;;;;;103753;1294;544830;-71
2024/01/22 15:40:58;;;;;;;16.80;10.10;;;;;;;;;;104053;1289;545609;-71
2024/01/22 15:44:35;;;;;;;19.00;11.30;;;;;;;;;;103784;1289;545596;-71
2024/01/22 15:48:18;;;;;;;19.00;11.50;;;;;;;;;;103464;1295;548136;-71
2024/01/22 15:51:51;;;;;;;20.90;10.80;;;;;;;;;;103665;1290;545001;-70
2024/01/22 15:55:27;;;;;;;19.20;10.20;;;;;;;;;;103960;1289;545524;-73
2024/01/22 15:59:07;;;;;;;20.10;11.90;;;;;;;;;;103530;1295;545123;-71
2024/01/22 16:02:42;;;;;;;20.10;12.00;;;;;;;;;;103666;1290;544889;-71
2024/01/22 16:06:22;;;;;;;21.20;12.10;;;;;;;;;;103638;1292;545890;-72
2024/01/22 16:09:58;;;;;;;21.50;11.90;;;;;;;;;;104164;1288;544929;-71
2024/01/22 16:13:31;;;;;;;18.50;9.70;;;;;;;;;;103771;1289;545439;-72
2024/01/22 16:17:12;;;;;;;27.00;14.60;;;;;;;;;;103704;1289;544996;-71
2024/01/22 16:20:49;;;;;;;19.60;12.30;;;;;;;;;;103549;1291;546711;-71
2024/01/22 16:24:27;;;;;;;16.60;10.00;;;;;;;;;;103707;1290;544798;-74
2024/01/22 16:28:20;;;;;;;18.10;10.20;;;;;;;;;;103479;1296;547798;-71
2024/01/22 16:31:42;;;;;;;17.90;11.10;;;;;;;;;;103660;1289;545515;-72
2024/01/22 16:35:20;;;;;;;22.20;15.60;;;;;;;;;;103589;1289;545069;-71
2024/01/22 16:38:59;;;;;;;19.80;12.00;;;;;;;;;;103704;1292;545364;-70
2024/01/22 16:42:35;;;;;;;18.20;11.50;;;;;;;;;;103733;1292;544955;-71
2024/01/22 16:46:15;;;;;;;19.10;12.40;;;;;;;;;;103424;1291;545620;-71
2024/01/22 16:49:46;;;;;;;18.50;11.40;;;;;;;;;;103685;1301;545239;-70
2024/01/22 16:53:23;;;;;;;18.60;11.00;;;;;;;;;;103626;1291;544907;-71
2024/01/22 16:57:10;;;;;;;17.70;10.70;;;;;;;;;;103217;1292;548044;-74
2024/01/22 17:00:42;;;;;;;17.20;11.10;;;;;;;;;;103705;1292;545490;-71
2024/01/22 17:04:22;;;;;;;17.20;11.90;;;;;;;;;;103534;1291;546376;-70
2024/01/22 17:07:56;;;;;;;16.90;10.90;;;;;;;;;;103353;1292;545048;-69
2024/01/22 17:11:34;;;;;;;17.60;11.00;;;;;;;;;;103645;1288;545959;-70
2024/01/22 17:15:14;;;;;;;18.30;10.90;;;;;;;;;;103472;1291;545317;-69
2024/01/22 17:18:49;;;;;;;20.90;11.60;;;;;;;;;;103693;1291;544880;-69
2024/01/22 17:22:27;;;;;;;20.20;12.50;;;;;;;;;;103437;1290;545067;-72
2024/01/22 17:26:08;;;;;;;25.10;13.30;;;;;;;;;;103573;1291;545189;-70
2024/01/22 17:29:41;;;;;;;20.00;12.90;;;;;;;;;;103504;1292;545077;-69
2024/01/22 17:33:19;;;;;;;20.00;12.20;;;;;;;;;;103500;1291;544713;-71
2024/01/22 17:36:56;;;;;;;18.40;10.90;;;;;;;;;;103778;1289;544809;-69
2024/01/22 17:40:40;;;;;;;19.70;12.10;;;;;;;;;;103492;1305;547810;-70
2024/01/22 17:44:12;;;;;;;19.10;12.10;;;;;;;;;;103662;1291;545186;-70
2024/01/22 17:47:49;;;;;;;18.10;11.80;;;;;;;;;;103621;1290;544972;-70
2024/01/22 17:51:26;;;;;;;18.60;12.20;;;;;;;;;;103594;1289;544930;-71
2024/01/22 17:55:04;;;;;;;18.20;11.20;;;;;;;;;;103378;1291;545502;-71
2024/01/22 17:58:41;;;;;;;18.00;10.70;;;;;;;;;;103714;1289;544987;-71
2024/01/22 18:02:19;;;;;;;20.10;12.10;;;;;;;;;;103725;1290;544572;-70
2024/01/22 18:05:56;;;;;;;20.50;12.90;;;;;;;;;;103750;1289;545151;-71
2024/01/22 18:09:36;;;;;;;19.20;12.40;;;;;;;;;;103489;1291;545730;-71
2024/01/22 18:13:11;;;;;;;18.50;11.60;;;;;;;;;;103707;1292;545048;-70
2024/01/22 18:16:49;;;;;;;17.80;10.50;;;;;;;;;;103385;1291;545983;-72
2024/01/22 18:20:26;;;;;;;17.70;10.80;;;;;;;;;;103584;1302;544833;-71
2024/01/22 18:24:05;;;;;;;16.20;10.60;;;;;;;;;;103724;1292;544955;-70
2024/01/22 18:27:42;;;;;;;17.80;10.60;;;;;;;;;;103864;1289;545018;-71
2024/01/22 18:31:18;;;;;;;17.10;11.10;;;;;;;;;;103576;1295;545007;-70
2024/01/22 18:34:52;;;;;;;19.40;11.40;;;;;;;;;;103536;1292;544793;-71
2024/01/22 18:38:33;;;;;;;22.40;12.90;;;;;;;;;;103917;1291;545474;-71
2024/01/22 18:42:10;;;;;;;18.50;10.50;;;;;;;;;;103867;1290;544758;-70
2024/01/22 18:45:48;;;;;;;22.60;12.30;;;;;;;;;;103509;1291;545115;-71
2024/01/22 18:49:28;;;;;;;17.10;11.00;;;;;;;;;;103382;1297;545115;-70
2024/01/22 18:53:03;;;;;;;17.10;10.50;;;;;;;;;;103500;1292;545303;-71
2024/01/22 18:56:43;;;;;;;18.90;10.50;;;;;;;;;;104337;1283;544931;-71
2024/01/22 19:00:18;;;;;;;17.60;10.70;;;;;;;;;;103508;1295;545406;-70
2024/01/22 19:03:56;;;;;;;15.80;10.10;;;;;;;;;;104484;1289;545188;-69
2024/01/22 19:07:33;;;;;;;17.00;10.40;;;;;;;;;;103594;1292;545771;-71
2024/01/22 19:11:11;;;;;;;16.50;10.60;;;;;;;;;;103367;1298;545038;-70
2024/01/22 19:14:48;;;;;;;16.40;10.20;;;;;;;;;;103354;1295;544772;-69
2024/01/22 19:18:31;;;;;;;18.00;10.40;;;;;;;;;;103487;1292;548042;-71
2024/01/22 19:22:03;;;;;;;18.40;11.90;;;;;;;;;;103610;1291;544971;-71
2024/01/22 19:25:46;;;;;;;22.00;14.00;;;;;;;;;;103615;1292;548427;-71
2024/01/22 19:29:18;;;;;;;21.90;14.20;;;;;;;;;;103466;1295;545032;-71
2024/01/22 19:32:55;;;;;;;19.90;13.00;;;;;;;;;;103701;1292;544809;-71
2024/01/22 19:36:33;;;;;;;21.40;13.40;;;;;;;;;;103762;1294;545641;-70
2024/01/22 19:40:13;;;;;;;18.50;12.70;;;;;;;;;;103655;1292;545819;-71
2024/01/22 19:43:48;;;;;;;17.80;12.00;;;;;;;;;;103671;1291;545981;-70
2024/01/22 19:47:28;;;;;;;19.10;13.20;;;;;;;;;;103613;1289;545860;-71
2024/01/22 19:51:03;;;;;;;20.50;13.60;;;;;;;;;;103515;1295;544855;-71
2024/01/22 19:54:39;;;;;;;20.30;12.70;;;;;;;;;;103573;1289;545326;-71
2024/01/22 19:58:17;;;;;;;20.10;13.50;;;;;;;;;;103540;1299;544972;-71
2024/01/22 20:01:54;;;;;;;21.80;14.30;;;;;;;;;;103371;1291;544774;-70
2024/01/22 20:05:32;;;;;;;21.40;15.30;;;;;;;;;;103413;1292;545358;-72
2024/01/22 20:09:16;;;;;;;21.50;14.70;;;;;;;;;;103398;1290;548181;-71
2024/01/22 20:12:48;;;;;;;21.20;14.00;;;;;;;;;;103456;1292;544970;-70
2024/01/22 20:16:26;;;;;;;23.10;14.70;;;;;;;;;;103568;1292;545231;-70
2024/01/22 20:20:02;;;;;;;31.40;18.20;;;;;;;;;;103717;1292;545188;-71
2024/01/22 20:23:39;;;;;;;28.60;18.10;;;;;;;;;;103588;1290;544803;-71
2024/01/22 20:27:17;;;;;;;28.60;17.10;;;;;;;;;;103596;1291;544926;-70
2024/01/22 20:31:01;;;;;;;23.70;15.70;;;;;;;;;;103175;1294;548255;-70
2024/01/22 20:34:31;;;;;;;22.80;14.90;;;;;;;;;;103399;1292;545007;-72
2024/01/22 20:38:10;;;;;;;20.80;12.90;;;;;;;;;;103496;1292;545369;-71
2024/01/22 20:41:47;;;;;;;19.30;13.20;;;;;;;;;;103387;1290;544797;-71